sensor_id;sensor_type;location;lat;lon;timestamp;pressure;altitude;pressure_sealevel;temperature;humidity
69836;BME280;57132;51.972;4.450;2022-07-30T00:00:14;101904.00;;;15.41;100.00
69836;BME280;57132;51.972;4.450;2022-07-30T00:02:41;101902.50;;;15.37;100.00
69836;BME280;57132;51.972;4.450;2022-07-30T00:05:07;101907.03;;;15.37;100.00
69836;BME280;57132;51.972;4.450;2022-07-30T00:07:32;101897.22;;;15.36;100.00
69836;BME280;57132;51.972;4.450;2022-07-30T00:10:00;101898.19;;;15.35;100.00
69836;BME280;57132;51.972;4.450;2022-07-30T00:12:25;101897.47;;;15.33;100.00
69836;BME280;57132;51.972;4.450;2022-07-30T00:14:51;101891.47;;;15.29;100.00
69836;BME280;57132;51.972;4.450;2022-07-30T00:17:16;101885.78;;;15.21;100.00
69836;BME280;57132;51.972;4.450;2022-07-30T00:19:41;101885.06;;;15.06;100.00
69836;BME280;57132;51.972;4.450;2022-07-30T00:22:07;101878.25;;;14.89;100.00
69836;BME280;57132;51.972;4.450;2022-07-30T00:24:32;101878.38;;;14.75;100.00
69836;BME280;57132;51.972;4.450;2022-07-30T00:26:57;101876.69;;;14.61;100.00
69836;BME280;57132;51.972;4.450;2022-07-30T00:29:23;101867.53;;;14.51;100.00
69836;BME280;57132;51.972;4.450;2022-07-30T00:31:49;101873.44;;;14.43;100.00
69836;BME280;57132;51.972;4.450;2022-07-30T00:34:15;101871.28;;;14.36;100.00
69836;BME280;57132;51.972;4.450;2022-07-30T00:36:40;101867.28;;;14.28;100.00
69836;BME280;57132;51.972;4.450;2022-07-30T00:39:06;101863.56;;;14.18;100.00
69836;BME280;57132;51.972;4.450;2022-07-30T00:41:31;101868.81;;;14.07;100.00
69836;BME280;57132;51.972;4.450;2022-07-30T00:43:57;101866.09;;;13.94;100.00
69836;BME280;57132;51.972;4.450;2022-07-30T00:46:22;101879.41;;;13.83;100.00
69836;BME280;57132;51.972;4.450;2022-07-30T00:48:47;101864.66;;;13.76;100.00
69836;BME280;57132;51.972;4.450;2022-07-30T00:51:13;101869.56;;;13.69;100.00
69836;BME280;57132;51.972;4.450;2022-07-30T00:53:39;101862.03;;;13.62;100.00
69836;BME280;57132;51.972;4.450;2022-07-30T00:56:05;101864.31;;;13.55;100.00
69836;BME280;57132;51.972;4.450;2022-07-30T00:58:30;101860.84;;;13.53;100.00
69836;BME280;57132;51.972;4.450;2022-07-30T01:00:56;101859.53;;;13.46;100.00
69836;BME280;57132;51.972;4.450;2022-07-30T01:03:21;101865.41;;;13.38;100.00
69836;BME280;57132;51.972;4.450;2022-07-30T01:05:48;101864.97;;;13.32;100.00
69836;BME280;57132;51.972;4.450;2022-07-30T01:08:14;101857.22;;;13.27;100.00
69836;BME280;57132;51.972;4.450;2022-07-30T01:10:39;101861.06;;;13.23;100.00
69836;BME280;57132;51.972;4.450;2022-07-30T01:13:05;101859.59;;;13.17;100.00
69836;BME280;57132;51.972;4.450;2022-07-30T01:15:30;101858.00;;;13.15;100.00
69836;BME280;57132;51.972;4.450;2022-07-30T01:17:58;101864.31;;;13.14;100.00
69836;BME280;57132;51.972;4.450;2022-07-30T01:21:04;101865.38;;;13.11;100.00
69836;BME280;57132;51.972;4.450;2022-07-30T01:23:37;101863.00;;;13.07;100.00
69836;BME280;57132;51.972;4.450;2022-07-30T01:26:08;101864.91;;;13.04;100.00
69836;BME280;57132;51.972;4.450;2022-07-30T01:28:40;101860.81;;;12.99;100.00
69836;BME280;57132;51.972;4.450;2022-07-30T01:31:08;101854.88;;;12.94;100.00
69836;BME280;57132;51.972;4.450;2022-07-30T01:33:38;101857.13;;;12.87;100.00
69836;BME280;57132;51.972;4.450;2022-07-30T01:36:08;101858.34;;;12.82;100.00
69836;BME280;57132;51.972;4.450;2022-07-30T01:38:35;101855.97;;;12.77;100.00
69836;BME280;57132;51.972;4.450;2022-07-30T01:41:03;101854.44;;;12.73;100.00
69836;BME280;57132;51.972;4.450;2022-07-30T01:43:31;101857.00;;;12.74;100.00
69836;BME280;57132;51.972;4.450;2022-07-30T01:45:58;101856.16;;;12.74;100.00
69836;BME280;57132;51.972;4.450;2022-07-30T01:48:26;101849.63;;;12.78;100.00
69836;BME280;57132;51.972;4.450;2022-07-30T01:50:54;101854.69;;;12.83;100.00
69836;BME280;57132;51.972;4.450;2022-07-30T01:53:24;101852.81;;;12.85;100.00
69836;BME280;57132;51.972;4.450;2022-07-30T01:55:52;101850.00;;;12.86;100.00
69836;BME280;57132;51.972;4.450;2022-07-30T01:58:20;101853.00;;;12.82;100.00
69836;BME280;57132;51.972;4.450;2022-07-30T02:00:48;101851.66;;;12.74;100.00
69836;BME280;57132;51.972;4.450;2022-07-30T02:03:15;101858.28;;;12.69;100.00
69836;BME280;57132;51.972;4.450;2022-07-30T02:05:44;101860.28;;;12.65;100.00
69836;BME280;57132;51.972;4.450;2022-07-30T02:08:16;101858.94;;;12.58;100.00
69836;BME280;57132;51.972;4.450;2022-07-30T02:10:52;101860.38;;;12.49;100.00
69836;BME280;57132;51.972;4.450;2022-07-30T02:13:20;101872.34;;;12.44;100.00
69836;BME280;57132;51.972;4.450;2022-07-30T02:15:59;101870.16;;;12.36;100.00
69836;BME280;57132;51.972;4.450;2022-07-30T02:18:56;101873.88;;;12.34;100.00
69836;BME280;57132;51.972;4.450;2022-07-30T02:21:22;101874.06;;;12.30;100.00
69836;BME280;57132;51.972;4.450;2022-07-30T02:23:49;101868.03;;;12.27;100.00
69836;BME280;57132;51.972;4.450;2022-07-30T02:26:18;101871.66;;;12.26;100.00
69836;BME280;57132;51.972;4.450;2022-07-30T02:28:48;101870.81;;;12.25;100.00
69836;BME280;57132;51.972;4.450;2022-07-30T02:31:18;101870.03;;;12.23;100.00
69836;BME280;57132;51.972;4.450;2022-07-30T02:33:44;101866.69;;;12.20;100.00
69836;BME280;57132;51.972;4.450;2022-07-30T02:36:14;101866.03;;;12.16;100.00
69836;BME280;57132;51.972;4.450;2022-07-30T02:38:41;101859.59;;;12.04;100.00
69836;BME280;57132;51.972;4.450;2022-07-30T02:41:08;101857.38;;;11.97;100.00
69836;BME280;57132;51.972;4.450;2022-07-30T02:43:36;101864.22;;;11.87;100.00
69836;BME280;57132;51.972;4.450;2022-07-30T02:46:04;101860.94;;;11.81;100.00
69836;BME280;57132;51.972;4.450;2022-07-30T02:48:31;101863.72;;;11.80;100.00
69836;BME280;57132;51.972;4.450;2022-07-30T02:50:59;101857.47;;;11.79;100.00
69836;BME280;57132;51.972;4.450;2022-07-30T02:53:26;101856.63;;;11.79;100.00
69836;BME280;57132;51.972;4.450;2022-07-30T02:55:53;101861.91;;;11.80;100.00
69836;BME280;57132;51.972;4.450;2022-07-30T02:58:22;101857.31;;;11.82;100.00
69836;BME280;57132;51.972;4.450;2022-07-30T03:00:50;101854.59;;;11.84;100.00
69836;BME280;57132;51.972;4.450;2022-07-30T03:03:17;101850.84;;;11.87;100.00
69836;BME280;57132;51.972;4.450;2022-07-30T03:05:43;101856.03;;;11.90;100.00
69836;BME280;57132;51.972;4.450;2022-07-30T03:08:12;101862.25;;;11.90;100.00
69836;BME280;57132;51.972;4.450;2022-07-30T03:10:40;101856.88;;;11.90;100.00
69836;BME280;57132;51.972;4.450;2022-07-30T03:13:09;101865.78;;;11.91;100.00
69836;BME280;57132;51.972;4.450;2022-07-30T03:15:36;101866.91;;;11.87;100.00
69836;BME280;57132;51.972;4.450;2022-07-30T03:18:03;101859.94;;;11.84;100.00
69836;BME280;57132;51.972;4.450;2022-07-30T03:20:30;101868.72;;;11.86;100.00
69836;BME280;57132;51.972;4.450;2022-07-30T03:22:57;101874.19;;;11.85;100.00
69836;BME280;57132;51.972;4.450;2022-07-30T03:25:26;101868.81;;;11.85;100.00
69836;BME280;57132;51.972;4.450;2022-07-30T03:27:54;101873.13;;;11.87;100.00
69836;BME280;57132;51.972;4.450;2022-07-30T03:30:22;101857.84;;;11.89;100.00
69836;BME280;57132;51.972;4.450;2022-07-30T03:32:49;101855.00;;;11.92;100.00
69836;BME280;57132;51.972;4.450;2022-07-30T03:35:15;101857.47;;;11.95;100.00
69836;BME280;57132;51.972;4.450;2022-07-30T03:37:42;101861.66;;;11.99;100.00
69836;BME280;57132;51.972;4.450;2022-07-30T03:40:08;101862.56;;;12.00;100.00
69836;BME280;57132;51.972;4.450;2022-07-30T03:42:34;101859.00;;;11.99;100.00
69836;BME280;57132;51.972;4.450;2022-07-30T03:45:03;101861.88;;;11.96;100.00
69836;BME280;57132;51.972;4.450;2022-07-30T03:47:31;101867.97;;;11.98;100.00
69836;BME280;57132;51.972;4.450;2022-07-30T03:49:57;101869.91;;;11.96;100.00
69836;BME280;57132;51.972;4.450;2022-07-30T03:52:23;101873.50;;;11.95;100.00
69836;BME280;57132;51.972;4.450;2022-07-30T03:54:48;101874.47;;;11.94;100.00
69836;BME280;57132;51.972;4.450;2022-07-30T03:57:14;101873.72;;;11.92;100.00
69836;BME280;57132;51.972;4.450;2022-07-30T03:59:40;101877.25;;;11.93;100.00
69836;BME280;57132;51.972;4.450;2022-07-30T04:02:05;101877.44;;;11.90;100.00
69836;BME280;57132;51.972;4.450;2022-07-30T04:04:30;101874.06;;;11.86;100.00
69836;BME280;57132;51.972;4.450;2022-07-30T04:06:56;101874.19;;;11.85;100.00
69836;BME280;57132;51.972;4.450;2022-07-30T04:09:23;101882.19;;;11.85;100.00
69836;BME280;57132;51.972;4.450;2022-07-30T04:11:48;101878.66;;;11.84;100.00
69836;BME280;57132;51.972;4.450;2022-07-30T04:14:14;101883.06;;;11.85;100.00
69836;BME280;57132;51.972;4.450;2022-07-30T04:16:46;101879.31;;;11.88;100.00
69836;BME280;57132;51.972;4.450;2022-07-30T04:19:21;101885.34;;;11.91;100.00
69836;BME280;57132;51.972;4.450;2022-07-30T04:21:48;101881.53;;;11.95;100.00
69836;BME280;57132;51.972;4.450;2022-07-30T04:24:15;101880.31;;;12.01;100.00
69836;BME280;57132;51.972;4.450;2022-07-30T04:26:41;101880.78;;;12.07;100.00
69836;BME280;57132;51.972;4.450;2022-07-30T04:29:08;101881.41;;;12.13;100.00
69836;BME280;57132;51.972;4.450;2022-07-30T04:31:34;101889.81;;;12.21;100.00
69836;BME280;57132;51.972;4.450;2022-07-30T04:34:02;101887.66;;;12.27;100.00
69836;BME280;57132;51.972;4.450;2022-07-30T04:36:31;101892.03;;;12.28;100.00
69836;BME280;57132;51.972;4.450;2022-07-30T04:38:57;101887.53;;;12.29;100.00
69836;BME280;57132;51.972;4.450;2022-07-30T04:41:23;101893.75;;;12.29;100.00
69836;BME280;57132;51.972;4.450;2022-07-30T04:43:50;101895.00;;;12.38;100.00
69836;BME280;57132;51.972;4.450;2022-07-30T04:46:16;101895.97;;;12.51;100.00
69836;BME280;57132;51.972;4.450;2022-07-30T04:48:41;101897.69;;;12.67;100.00
69836;BME280;57132;51.972;4.450;2022-07-30T04:51:11;101908.28;;;12.83;100.00
69836;BME280;57132;51.972;4.450;2022-07-30T04:53:39;101897.75;;;12.94;100.00
69836;BME280;57132;51.972;4.450;2022-07-30T04:56:05;101898.41;;;13.12;100.00
69836;BME280;57132;51.972;4.450;2022-07-30T04:58:32;101901.22;;;13.37;100.00
69836;BME280;57132;51.972;4.450;2022-07-30T05:00:59;101889.53;;;13.65;100.00
69836;BME280;57132;51.972;4.450;2022-07-30T05:03:26;101900.78;;;13.97;100.00
69836;BME280;57132;51.972;4.450;2022-07-30T05:05:54;101901.47;;;14.39;100.00
69836;BME280;57132;51.972;4.450;2022-07-30T05:08:22;101903.53;;;14.74;100.00
69836;BME280;57132;51.972;4.450;2022-07-30T05:10:49;101906.25;;;15.11;100.00
69836;BME280;57132;51.972;4.450;2022-07-30T05:13:15;101907.31;;;15.45;100.00
69836;BME280;57132;51.972;4.450;2022-07-30T05:15:40;101913.28;;;15.85;100.00
69836;BME280;57132;51.972;4.450;2022-07-30T05:18:06;101916.69;;;16.22;100.00
69836;BME280;57132;51.972;4.450;2022-07-30T05:20:32;101910.00;;;16.62;100.00
69836;BME280;57132;51.972;4.450;2022-07-30T05:22:58;101914.31;;;17.09;100.00
69836;BME280;57132;51.972;4.450;2022-07-30T05:25:23;101919.75;;;17.53;100.00
69836;BME280;57132;51.972;4.450;2022-07-30T05:27:49;101924.44;;;18.15;97.96
69836;BME280;57132;51.972;4.450;2022-07-30T05:30:15;101924.41;;;18.78;93.48
69836;BME280;57132;51.972;4.450;2022-07-30T05:32:40;101929.75;;;19.49;90.08
69836;BME280;57132;51.972;4.450;2022-07-30T05:35:08;101926.81;;;19.90;85.71
69836;BME280;57132;51.972;4.450;2022-07-30T05:37:33;101936.31;;;20.33;83.95
69836;BME280;57132;51.972;4.450;2022-07-30T05:39:59;101937.00;;;20.45;80.97
69836;BME280;57132;51.972;4.450;2022-07-30T05:42:24;101934.41;;;20.73;81.60
69836;BME280;57132;51.972;4.450;2022-07-30T05:44:49;101934.44;;;21.00;80.14
69836;BME280;57132;51.972;4.450;2022-07-30T05:47:15;101935.88;;;21.22;78.49
69836;BME280;57132;51.972;4.450;2022-07-30T05:49:42;101933.03;;;21.69;77.25
69836;BME280;57132;51.972;4.450;2022-07-30T05:52:07;101942.66;;;21.99;75.37
69836;BME280;57132;51.972;4.450;2022-07-30T05:54:32;101939.44;;;22.40;74.23
69836;BME280;57132;51.972;4.450;2022-07-30T05:56:58;101942.25;;;22.56;73.66
69836;BME280;57132;51.972;4.450;2022-07-30T05:59:23;101937.63;;;22.74;72.56
69836;BME280;57132;51.972;4.450;2022-07-30T06:01:49;101939.72;;;22.54;72.43
69836;BME280;57132;51.972;4.450;2022-07-30T06:04:14;101947.28;;;22.95;71.54
69836;BME280;57132;51.972;4.450;2022-07-30T06:06:40;101945.88;;;23.25;70.48
69836;BME280;57132;51.972;4.450;2022-07-30T06:09:05;101948.19;;;23.54;67.89
69836;BME280;57132;51.972;4.450;2022-07-30T06:11:30;101948.41;;;23.69;66.02
69836;BME280;57132;51.972;4.450;2022-07-30T06:13:56;101950.97;;;23.78;63.81
69836;BME280;57132;51.972;4.450;2022-07-30T06:16:21;101948.59;;;23.84;64.05
69836;BME280;57132;51.972;4.450;2022-07-30T06:18:46;101949.28;;;23.86;63.84
69836;BME280;57132;51.972;4.450;2022-07-30T06:21:12;101946.22;;;23.80;64.27
69836;BME280;57132;51.972;4.450;2022-07-30T06:23:37;101943.50;;;23.97;64.29
69836;BME280;57132;51.972;4.450;2022-07-30T06:26:02;101936.69;;;23.93;62.45
69836;BME280;57132;51.972;4.450;2022-07-30T06:28:28;101941.09;;;23.86;63.13
69836;BME280;57132;51.972;4.450;2022-07-30T06:30:53;101939.09;;;23.88;62.41
69836;BME280;57132;51.972;4.450;2022-07-30T06:33:21;101951.00;;;24.03;61.94
69836;BME280;57132;51.972;4.450;2022-07-30T06:35:46;101945.72;;;24.01;61.74
69836;BME280;57132;51.972;4.450;2022-07-30T06:38:13;101942.16;;;23.93;61.89
69836;BME280;57132;51.972;4.450;2022-07-30T06:40:38;101941.44;;;23.74;61.81
69836;BME280;57132;51.972;4.450;2022-07-30T06:43:04;101938.78;;;23.40;62.05
69836;BME280;57132;51.972;4.450;2022-07-30T06:45:29;101938.59;;;23.34;63.50
69836;BME280;57132;51.972;4.450;2022-07-30T06:47:58;101941.72;;;23.63;62.42
69836;BME280;57132;51.972;4.450;2022-07-30T06:50:24;101945.72;;;23.77;61.50
69836;BME280;57132;51.972;4.450;2022-07-30T06:52:50;101944.16;;;23.91;59.75
69836;BME280;57132;51.972;4.450;2022-07-30T06:55:15;101946.94;;;24.23;56.77
69836;BME280;57132;51.972;4.450;2022-07-30T06:57:40;101941.63;;;24.05;58.14
69836;BME280;57132;51.972;4.450;2022-07-30T07:00:06;101955.78;;;24.34;57.78
69836;BME280;57132;51.972;4.450;2022-07-30T07:02:32;101956.22;;;24.78;55.79
69836;BME280;57132;51.972;4.450;2022-07-30T07:04:58;101952.09;;;24.90;53.79
69836;BME280;57132;51.972;4.450;2022-07-30T07:07:23;101939.75;;;25.50;53.44
69836;BME280;57132;51.972;4.450;2022-07-30T07:09:48;101944.25;;;24.95;54.86
69836;BME280;57132;51.972;4.450;2022-07-30T07:12:14;101948.09;;;24.53;55.83
69836;BME280;57132;51.972;4.450;2022-07-30T07:14:39;101950.97;;;24.68;55.96
69836;BME280;57132;51.972;4.450;2022-07-30T07:17:04;101958.50;;;25.22;54.39
69836;BME280;57132;51.972;4.450;2022-07-30T07:19:30;101958.03;;;26.04;51.28
69836;BME280;57132;51.972;4.450;2022-07-30T07:21:55;101956.53;;;26.39;51.56
69836;BME280;57132;51.972;4.450;2022-07-30T07:24:20;101959.91;;;26.79;48.38
69836;BME280;57132;51.972;4.450;2022-07-30T07:26:46;101968.50;;;27.35;47.92
69836;BME280;57132;51.972;4.450;2022-07-30T07:29:11;101962.88;;;27.58;44.67
69836;BME280;57132;51.972;4.450;2022-07-30T07:31:37;101969.28;;;27.65;44.68
69836;BME280;57132;51.972;4.450;2022-07-30T07:34:02;101967.06;;;27.39;44.68
69836;BME280;57132;51.972;4.450;2022-07-30T07:36:28;101973.88;;;26.98;44.77
69836;BME280;57132;51.972;4.450;2022-07-30T07:38:53;101960.94;;;26.63;48.29
69836;BME280;57132;51.972;4.450;2022-07-30T07:41:19;101966.69;;;26.30;48.51
69836;BME280;57132;51.972;4.450;2022-07-30T07:43:44;101961.63;;;25.50;50.95
69836;BME280;57132;51.972;4.450;2022-07-30T07:46:10;101966.13;;;25.35;48.78
69836;BME280;57132;51.972;4.450;2022-07-30T07:48:36;101966.06;;;25.03;51.29
69836;BME280;57132;51.972;4.450;2022-07-30T07:51:03;101967.88;;;24.23;53.28
69836;BME280;57132;51.972;4.450;2022-07-30T07:53:28;101966.69;;;24.17;53.51
69836;BME280;57132;51.972;4.450;2022-07-30T07:55:54;101963.56;;;23.71;54.87
69836;BME280;57132;51.972;4.450;2022-07-30T07:58:20;101961.66;;;23.64;53.28
69836;BME280;57132;51.972;4.450;2022-07-30T08:00:45;101957.72;;;23.58;52.33
69836;BME280;57132;51.972;4.450;2022-07-30T08:03:10;101962.44;;;23.40;53.44
69836;BME280;57132;51.972;4.450;2022-07-30T08:05:36;101960.78;;;23.55;54.76
69836;BME280;57132;51.972;4.450;2022-07-30T08:08:01;101963.94;;;23.68;53.87
69836;BME280;57132;51.972;4.450;2022-07-30T08:10:26;101955.06;;;23.83;53.51
69836;BME280;57132;51.972;4.450;2022-07-30T08:12:52;101952.34;;;23.99;52.08
69836;BME280;57132;51.972;4.450;2022-07-30T08:15:18;101951.69;;;24.13;52.08
69836;BME280;57132;51.972;4.450;2022-07-30T08:17:44;101950.16;;;24.02;51.52
69836;BME280;57132;51.972;4.450;2022-07-30T08:20:11;101951.16;;;23.85;50.39
69836;BME280;57132;51.972;4.450;2022-07-30T08:22:37;101948.25;;;23.95;50.36
69836;BME280;57132;51.972;4.450;2022-07-30T08:25:04;101948.13;;;24.21;51.12
69836;BME280;57132;51.972;4.450;2022-07-30T08:27:30;101951.00;;;24.36;50.43
69836;BME280;57132;51.972;4.450;2022-07-30T08:29:55;101947.75;;;24.57;51.08
69836;BME280;57132;51.972;4.450;2022-07-30T08:32:20;101948.97;;;24.21;54.03
69836;BME280;57132;51.972;4.450;2022-07-30T08:34:46;101946.91;;;23.83;54.55
69836;BME280;57132;51.972;4.450;2022-07-30T08:37:12;101947.09;;;23.30;55.80
69836;BME280;57132;51.972;4.450;2022-07-30T08:39:37;101945.66;;;22.84;55.64
69836;BME280;57132;51.972;4.450;2022-07-30T08:42:03;101951.53;;;22.71;57.93
69836;BME280;57132;51.972;4.450;2022-07-30T08:44:29;101948.03;;;22.79;58.16
69836;BME280;57132;51.972;4.450;2022-07-30T08:46:55;101955.34;;;22.52;58.64
69836;BME280;57132;51.972;4.450;2022-07-30T08:49:23;101948.31;;;22.24;59.90
69836;BME280;57132;51.972;4.450;2022-07-30T08:51:50;101952.06;;;22.23;59.53
69836;BME280;57132;51.972;4.450;2022-07-30T08:54:17;101954.56;;;22.16;60.52
69836;BME280;57132;51.972;4.450;2022-07-30T08:56:43;101957.09;;;22.00;59.43
69836;BME280;57132;51.972;4.450;2022-07-30T08:59:08;101958.19;;;21.89;60.28
69836;BME280;57132;51.972;4.450;2022-07-30T09:01:34;101955.06;;;21.48;61.46
69836;BME280;57132;51.972;4.450;2022-07-30T09:04:00;101949.56;;;21.58;60.97
69836;BME280;57132;51.972;4.450;2022-07-30T09:06:25;101958.88;;;21.73;60.41
69836;BME280;57132;51.972;4.450;2022-07-30T09:08:51;101962.63;;;21.72;62.37
69836;BME280;57132;51.972;4.450;2022-07-30T09:11:16;101971.78;;;21.89;60.92
69836;BME280;57132;51.972;4.450;2022-07-30T09:13:42;101973.50;;;22.08;62.46
69836;BME280;57132;51.972;4.450;2022-07-30T09:16:25;101964.50;;;22.25;60.31
69836;BME280;57132;51.972;4.450;2022-07-30T09:18:52;101979.09;;;22.42;59.02
69836;BME280;57132;51.972;4.450;2022-07-30T09:21:20;101966.81;;;22.38;57.86
69836;BME280;57132;51.972;4.450;2022-07-30T09:26:20;101959.34;;;22.66;57.24
69836;BME280;57132;51.972;4.450;2022-07-30T09:28:46;101964.78;;;22.66;57.73
69836;BME280;57132;51.972;4.450;2022-07-30T09:31:11;101959.09;;;22.77;57.90
69836;BME280;57132;51.972;4.450;2022-07-30T09:33:41;101958.34;;;22.93;57.05
69836;BME280;57132;51.972;4.450;2022-07-30T09:36:09;101947.31;;;23.03;58.24
69836;BME280;57132;51.972;4.450;2022-07-30T09:39:01;101950.84;;;22.95;55.79
69836;BME280;57132;51.972;4.450;2022-07-30T09:41:34;101960.09;;;23.02;54.76
69836;BME280;57132;51.972;4.450;2022-07-30T09:44:03;101959.28;;;23.10;55.37
69836;BME280;57132;51.972;4.450;2022-07-30T09:46:43;101948.84;;;22.97;53.63
69836;BME280;57132;51.972;4.450;2022-07-30T09:49:29;101951.34;;;23.25;54.78
69836;BME280;57132;51.972;4.450;2022-07-30T09:51:55;101955.50;;;23.53;53.10
69836;BME280;57132;51.972;4.450;2022-07-30T09:54:21;101953.31;;;23.65;53.73
69836;BME280;57132;51.972;4.450;2022-07-30T09:56:46;101952.25;;;23.50;53.01
69836;BME280;57132;51.972;4.450;2022-07-30T09:59:25;101947.16;;;23.55;54.10
69836;BME280;57132;51.972;4.450;2022-07-30T10:01:52;101951.41;;;23.49;53.86
69836;BME280;57132;51.972;4.450;2022-07-30T10:04:29;101952.63;;;23.63;53.39
69836;BME280;57132;51.972;4.450;2022-07-30T10:06:56;101949.09;;;23.71;53.09
69836;BME280;57132;51.972;4.450;2022-07-30T10:09:32;101948.97;;;23.89;53.67
69836;BME280;57132;51.972;4.450;2022-07-30T10:12:00;101955.78;;;24.01;53.22
69836;BME280;57132;51.972;4.450;2022-07-30T10:14:32;101959.19;;;24.03;52.80
69836;BME280;57132;51.972;4.450;2022-07-30T10:16:59;101959.69;;;23.98;50.75
69836;BME280;57132;51.972;4.450;2022-07-30T10:19:25;101961.25;;;24.01;51.12
69836;BME280;57132;51.972;4.450;2022-07-30T10:21:50;101959.34;;;24.01;50.18
69836;BME280;57132;51.972;4.450;2022-07-30T10:24:18;101963.78;;;23.94;50.48
69836;BME280;57132;51.972;4.450;2022-07-30T10:26:48;101962.94;;;23.94;51.30
69836;BME280;57132;51.972;4.450;2022-07-30T10:29:15;101962.94;;;23.94;51.87
69836;BME280;57132;51.972;4.450;2022-07-30T10:31:44;101968.06;;;23.97;51.55
69836;BME280;57132;51.972;4.450;2022-07-30T10:34:14;101964.09;;;23.83;51.95
69836;BME280;57132;51.972;4.450;2022-07-30T10:36:44;101970.06;;;23.78;52.53
69836;BME280;57132;51.972;4.450;2022-07-30T10:39:14;101963.94;;;23.76;51.84
69836;BME280;57132;51.972;4.450;2022-07-30T10:42:04;101958.13;;;23.71;51.35
69836;BME280;57132;51.972;4.450;2022-07-30T10:45:02;101959.66;;;23.74;52.28
69836;BME280;57132;51.972;4.450;2022-07-30T10:47:36;101954.28;;;23.48;52.83
69836;BME280;57132;51.972;4.450;2022-07-30T10:50:12;101949.69;;;23.40;52.73
69836;BME280;57132;51.972;4.450;2022-07-30T10:53:02;101952.25;;;23.50;53.55
69836;BME280;57132;51.972;4.450;2022-07-30T10:55:32;101946.88;;;23.66;52.46
69836;BME280;57132;51.972;4.450;2022-07-30T10:58:06;101952.66;;;23.71;53.08
69836;BME280;57132;51.972;4.450;2022-07-30T11:00:34;101952.84;;;23.78;52.56
69836;BME280;57132;51.972;4.450;2022-07-30T11:05:37;101947.34;;;23.53;53.28
69836;BME280;57132;51.972;4.450;2022-07-30T11:10:55;101952.34;;;23.32;53.52
69836;BME280;57132;51.972;4.450;2022-07-30T11:13:51;101948.81;;;23.40;54.15
69836;BME280;57132;51.972;4.450;2022-07-30T11:16:18;101948.75;;;23.23;57.25
69836;BME280;57132;51.972;4.450;2022-07-30T11:21:32;101956.41;;;22.86;59.16
69836;BME280;57132;51.972;4.450;2022-07-30T11:23:58;101948.25;;;22.86;58.92
69836;BME280;57132;51.972;4.450;2022-07-30T11:29:06;101954.78;;;22.93;58.30
69836;BME280;57132;51.972;4.450;2022-07-30T11:31:36;101952.56;;;22.96;59.39
69836;BME280;57132;51.972;4.450;2022-07-30T11:37:03;101957.06;;;22.88;58.08
69836;BME280;57132;51.972;4.450;2022-07-30T11:42:31;101951.88;;;22.94;57.21
69836;BME280;57132;51.972;4.450;2022-07-30T11:47:46;101956.41;;;23.20;57.45
69836;BME280;57132;51.972;4.450;2022-07-30T11:50:18;101948.41;;;23.18;57.57
69836;BME280;57132;51.972;4.450;2022-07-30T11:55:23;101954.06;;;23.25;56.52
69836;BME280;57132;51.972;4.450;2022-07-30T11:57:49;101955.09;;;23.32;57.25
69836;BME280;57132;51.972;4.450;2022-07-30T12:00:15;101961.75;;;23.38;57.29
69836;BME280;57132;51.972;4.450;2022-07-30T12:02:43;101954.25;;;23.40;56.56
69836;BME280;57132;51.972;4.450;2022-07-30T12:05:08;101961.59;;;23.47;56.40
69836;BME280;57132;51.972;4.450;2022-07-30T12:07:34;101958.34;;;23.44;57.35
69836;BME280;57132;51.972;4.450;2022-07-30T12:10:16;101955.31;;;23.55;57.46
69836;BME280;57132;51.972;4.450;2022-07-30T12:12:42;101957.22;;;23.54;56.54
69836;BME280;57132;51.972;4.450;2022-07-30T12:15:09;101960.97;;;23.53;56.92
69836;BME280;57132;51.972;4.450;2022-07-30T12:17:44;101965.00;;;23.41;54.69
69836;BME280;57132;51.972;4.450;2022-07-30T12:20:17;101965.88;;;23.50;56.14
69836;BME280;57132;51.972;4.450;2022-07-30T12:22:44;101965.63;;;23.69;55.77
69836;BME280;57132;51.972;4.450;2022-07-30T12:25:10;101964.94;;;23.67;53.42
69836;BME280;57132;51.972;4.450;2022-07-30T12:27:36;101967.53;;;23.77;55.94
69836;BME280;57132;51.972;4.450;2022-07-30T12:30:03;101960.53;;;23.83;53.42
69836;BME280;57132;51.972;4.450;2022-07-30T12:32:29;101954.41;;;23.97;53.57
69836;BME280;57132;51.972;4.450;2022-07-30T12:34:55;101963.78;;;23.94;53.20
69836;BME280;57132;51.972;4.450;2022-07-30T12:37:21;101957.47;;;24.18;54.12
69836;BME280;57132;51.972;4.450;2022-07-30T12:39:46;101953.88;;;24.34;54.67
69836;BME280;57132;51.972;4.450;2022-07-30T12:42:17;101939.91;;;24.37;53.48
69836;BME280;57132;51.972;4.450;2022-07-30T12:44:43;101954.09;;;24.49;53.45
69836;BME280;57132;51.972;4.450;2022-07-30T12:47:28;101957.16;;;24.46;54.26
69836;BME280;57132;51.972;4.450;2022-07-30T12:49:56;101951.88;;;24.20;55.31
69836;BME280;57132;51.972;4.450;2022-07-30T12:52:27;101950.00;;;24.20;55.87
69836;BME280;57132;51.972;4.450;2022-07-30T12:57:22;101947.59;;;24.50;55.29
69836;BME280;57132;51.972;4.450;2022-07-30T13:00:08;101945.19;;;24.63;55.03
69836;BME280;57132;51.972;4.450;2022-07-30T13:02:33;101938.34;;;24.67;54.50
69836;BME280;57132;51.972;4.450;2022-07-30T13:04:59;101936.31;;;24.61;56.04
69836;BME280;57132;51.972;4.450;2022-07-30T13:07:25;101934.94;;;24.65;55.42
69836;BME280;57132;51.972;4.450;2022-07-30T13:10:10;101939.03;;;24.69;56.15
69836;BME280;57132;51.972;4.450;2022-07-30T13:12:36;101933.75;;;24.68;54.55
69836;BME280;57132;51.972;4.450;2022-07-30T13:15:03;101928.44;;;24.66;54.75